Time;durP1;ratioP1;P1;durP2;ratioP2;P2;SDS_P1;SDS_P2;PMS_P1;PMS_P2;Temp;Humidity;BMP_temperature;BMP_pressure;BME280_temperature;BME280_humidity;BME280_pressure;Samples;Min_cycle;Max_cycle;Signal;HPM_P1;HPM_P2
2023/03/23 00:00:00;;;;;;;1.23;1.08;;;;;;;11.07;100.00;100176.69;5053737;28;20036;-67
2023/03/23 00:02:26;;;;;;;1.35;1.00;;;;;;;11.08;100.00;100170.94;5037808;28;20028;-67
2023/03/23 00:04:53;;;;;;;2.35;1.23;;;;;;;11.09;100.00;100174.50;5065700;28;20062;-66
2023/03/23 00:07:22;;;;;;;1.25;1.10;;;;;;;11.14;100.00;100182.84;5064264;28;20040;-64
2023/03/23 00:09:53;;;;;;;1.42;1.10;;;;;;;11.13;100.00;100182.00;5061235;28;20073;-66
2023/03/23 00:12:28;;;;;;;1.30;1.20;;;;;;;11.13;100.00;100183.94;5065026;28;20048;-67
2023/03/23 00:14:56;;;;;;;1.10;1.00;;;;;;;11.13;100.00;100170.19;5065177;28;20103;-66
2023/03/23 00:17:23;;;;;;;1.17;1.00;;;;;;;11.13;100.00;100160.03;5056977;28;20033;-66
2023/03/23 00:19:48;;;;;;;1.30;1.05;;;;;;;11.10;100.00;100168.78;5046332;28;20028;-63
2023/03/23 00:22:16;;;;;;;2.47;1.10;;;;;;;11.14;100.00;100182.84;5047302;28;20032;-66
2023/03/23 00:24:42;;;;;;;1.50;1.17;;;;;;;11.11;100.00;100197.94;5046026;28;20024;-66
2023/03/23 00:27:08;;;;;;;1.23;1.13;;;;;;;11.10;100.00;100185.28;5051437;28;20032;-66
2023/03/23 00:29:34;;;;;;;1.40;1.10;;;;;;;11.10;100.00;100173.44;5048165;28;20367;-67
2023/03/23 00:32:00;;;;;;;1.58;1.00;;;;;;;11.09;100.00;100174.50;5066266;28;20086;-63
2023/03/23 00:34:25;;;;;;;1.30;1.10;;;;;;;11.08;100.00;100181.94;5064248;28;20028;-63
2023/03/23 00:36:56;;;;;;;1.58;1.00;;;;;;;11.06;100.00;100184.09;5064595;28;20619;-66
2023/03/23 00:39:24;;;;;;;1.10;1.05;;;;;;;11.08;100.00;100192.09;5064289;28;20115;-67
2023/03/23 00:41:50;;;;;;;1.10;1.10;;;;;;;11.09;100.00;100188.25;5065498;28;20021;-65
2023/03/23 00:44:16;;;;;;;1.00;0.90;;;;;;;11.07;100.00;100180.28;5068739;28;20387;-66
2023/03/23 00:46:48;;;;;;;1.63;1.13;;;;;;;11.06;100.00;100183.28;5067187;28;20029;-65
2023/03/23 00:49:15;;;;;;;1.23;1.13;;;;;;;11.08;100.00;100181.09;5065779;28;20082;-67
2023/03/23 00:51:41;;;;;;;1.10;1.00;;;;;;;11.12;100.00;100180.34;5063154;28;20040;-67
2023/03/23 00:54:08;;;;;;;1.63;1.13;;;;;;;11.11;100.00;100177.88;5053497;28;20045;-66
2023/03/23 00:56:34;;;;;;;1.80;1.10;;;;;;;11.12;100.00;100180.34;5049919;28;20103;-67
2023/03/23 00:59:00;;;;;;;1.50;1.30;;;;;;;11.07;100.00;100176.69;5052181;28;20040;-66
2023/03/23 01:01:25;;;;;;;1.30;1.13;;;;;;;10.99;100.00;100157.88;5069472;28;20020;-67
2023/03/23 01:03:52;;;;;;;1.35;1.20;;;;;;;10.95;100.00;100134.72;5068039;28;20025;-65
2023/03/23 01:06:18;;;;;;;1.80;1.13;;;;;;;10.90;100.00;100125.34;5060130;28;20029;-66
2023/03/23 01:08:46;;;;;;;1.63;1.20;;;;;;;10.89;100.00;100125.56;5049976;28;20040;-63
2023/03/23 01:11:14;;;;;;;1.27;1.17;;;;;;;10.89;100.00;100111.81;5050356;28;20082;-66
2023/03/23 01:13:41;;;;;;;;;;;;;;;10.97;100.00;100132.56;5048459;28;20045;-64
2023/03/23 01:16:07;;;;;;;1.58;1.17;;;;;;;10.91;100.00;100135.25;5046286;28;20260;-67
2023/03/23 01:18:32;;;;;;;1.30;1.20;;;;;;;10.94;100.00;100116.56;5052132;28;20051;-67
2023/03/23 01:20:57;;;;;;;1.45;1.35;;;;;;;10.88;100.00;100105.50;5069719;28;20032;-66
2023/03/23 01:23:22;;;;;;;1.08;0.98;;;;;;;10.94;100.00;100105.59;5054727;28;20356;-65
2023/03/23 01:25:49;;;;;;;1.25;1.17;;;;;;;10.91;100.00;100104.19;5054217;28;20033;-66
2023/03/23 01:28:14;;;;;;;1.33;1.10;;;;;;;10.97;100.00;100107.84;5066260;28;20060;-67
2023/03/23 01:30:39;;;;;;;1.92;1.50;;;;;;;10.94;100.00;100106.41;5069007;28;20059;-65
2023/03/23 01:33:05;;;;;;;1.35;1.10;;;;;;;10.95;100.00;100097.13;5067645;28;20048;-66
2023/03/23 01:35:30;;;;;;;1.40;1.30;;;;;;;11.00;100.00;100099.06;5060859;28;20124;-66
2023/03/23 01:37:55;;;;;;;1.17;1.08;;;;;;;11.03;100.00;100085.69;5066888;28;20036;-67
2023/03/23 01:40:21;;;;;;;1.20;1.10;;;;;;;11.06;100.00;100100.84;5068692;28;20293;-67
2023/03/23 01:42:46;;;;;;;1.42;1.30;;;;;;;11.11;100.00;100087.16;5068293;28;20031;-67
2023/03/23 01:45:26;;;;;;;1.55;1.23;;;;;;;11.24;100.00;100100.53;5061964;28;20070;-65
2023/03/23 01:47:52;;;;;;;1.30;1.20;;;;;;;11.16;100.00;100090.81;5053038;28;20036;-66
2023/03/23 01:50:20;;;;;;;1.65;1.40;;;;;;;11.13;100.00;100098.72;5049651;28;20032;-65
2023/03/23 01:52:46;;;;;;;;;;;;;;;11.21;100.00;100101.06;5048795;28;20024;-65
2023/03/23 01:55:12;;;;;;;1.10;1.10;;;;;;;11.18;100.00;100096.88;5043501;28;19924;-65
2023/03/23 01:57:37;;;;;;;1.23;1.13;;;;;;;11.23;100.00;100085.13;5053555;28;20032;-64
2023/03/23 02:00:11;;;;;;;1.40;1.30;;;;;;;11.22;100.00;100080.72;5067784;28;20028;-66
2023/03/23 02:02:38;;;;;;;1.35;1.25;;;;;;;11.29;100.00;100086.88;5067812;28;20395;-66
2023/03/23 02:05:10;;;;;;;1.58;1.10;;;;;;;11.32;100.00;100080.03;5059680;28;20476;-64
2023/03/23 02:07:35;;;;;;;1.23;1.13;;;;;;;11.31;100.00;100067.38;5062933;28;20044;-66
2023/03/23 02:10:00;;;;;;;1.00;1.00;;;;;;;11.30;100.00;100072.03;5068519;28;20364;-66
2023/03/23 02:12:26;;;;;;;1.20;1.08;;;;;;;11.31;100.00;100067.38;5067734;28;20174;-67
2023/03/23 02:14:52;;;;;;;1.48;1.38;;;;;;;11.32;100.00;100071.78;5052966;28;20036;-66
2023/03/23 02:17:29;;;;;;;1.10;1.00;;;;;;;11.36;100.00;100054.53;5064677;28;20039;-66
2023/03/23 02:20:13;;;;;;;1.15;1.10;;;;;;;11.33;100.00;100055.03;5068184;28;20025;-66
2023/03/23 02:23:11;;;;;;;1.10;1.10;;;;;;;11.34;100.00;100056.69;5060004;28;20380;-66
2023/03/23 02:26:13;;;;;;;1.10;1.10;;;;;;;11.36;100.00;100054.53;5048386;28;20037;-66
2023/03/23 02:29:29;;;;;;;1.65;1.10;;;;;;;11.42;100.00;100061.75;5047107;28;20036;-67
2023/03/23 02:32:05;;;;;;;1.52;1.27;;;;;;;11.39;100.00;100070.50;5048401;28;20059;-67
2023/03/23 02:34:40;;;;;;;1.55;1.10;;;;;;;11.38;100.00;100063.34;5033372;28;20112;-66
2023/03/23 02:37:14;;;;;;;1.30;1.20;;;;;;;11.38;100.00;100065.28;5066822;28;20120;-66
2023/03/23 02:39:50;;;;;;;1.80;1.23;;;;;;;11.40;100.00;100061.19;5067344;28;20033;-66
2023/03/23 02:42:21;;;;;;;1.38;1.08;;;;;;;11.36;100.00;100049.03;5067674;28;20020;-67
2023/03/23 02:44:48;;;;;;;1.60;1.00;;;;;;;11.39;100.00;100043.00;5057833;28;20028;-66
2023/03/23 02:47:21;;;;;;;1.40;1.20;;;;;;;11.44;100.00;100040.31;5031462;28;20380;-64
2023/03/23 02:49:50;;;;;;;1.05;1.00;;;;;;;11.45;100.00;100043.91;5056238;28;20024;-67
2023/03/23 02:52:21;;;;;;;1.63;1.20;;;;;;;11.50;100.00;100056.88;5067708;28;20028;-66
2023/03/23 02:54:49;;;;;;;2.03;1.20;;;;;;;11.51;100.00;100066.81;5059650;28;20025;-65
2023/03/23 02:57:16;;;;;;;1.45;1.27;;;;;;;11.55;100.00;100051.44;5046800;28;20036;-66
2023/03/23 02:59:41;;;;;;;1.25;1.10;;;;;;;11.55;100.00;100046.78;5045871;28;20029;-66
2023/03/23 03:02:14;;;;;;;2.30;1.27;;;;;;;11.57;100.00;100054.78;5046607;28;20352;-66
2023/03/23 03:04:41;;;;;;;1.15;1.05;;;;;;;11.51;100.00;100050.31;5046342;28;20029;-67
2023/03/23 03:07:12;;;;;;;1.00;1.00;;;;;;;11.51;100.00;100044.81;5065866;28;20383;-67
2023/03/23 03:09:46;;;;;;;1.20;1.15;;;;;;;11.55;100.00;100044.03;5064529;28;20039;-67
2023/03/23 03:12:36;;;;;;;1.20;1.10;;;;;;;11.63;100.00;100057.34;5051925;28;20552;-65
2023/03/23 03:15:38;;;;;;;1.42;1.10;;;;;;;11.70;100.00;100065.38;5046221;28;20033;-64
2023/03/23 03:18:39;;;;;;;1.13;1.00;;;;;;;11.74;100.00;100060.19;5050364;28;20086;-67
2023/03/23 03:21:10;;;;;;;1.20;1.10;;;;;;;11.67;100.00;100064.00;5059617;28;20441;-67
2023/03/23 03:23:37;;;;;;;1.45;1.10;;;;;;;11.67;100.00;100068.66;5049827;28;20122;-63
2023/03/23 03:26:05;;;;;;;0.95;0.95;;;;;;;11.70;100.00;100065.38;5046052;28;20083;-64
2023/03/23 03:28:32;;;;;;;1.23;1.00;;;;;;;11.78;100.00;100072.34;5046560;28;20082;-64
2023/03/23 03:31:01;;;;;;;1.20;1.10;;;;;;;11.78;100.00;100064.09;5047566;28;20368;-67
2023/03/23 03:33:30;;;;;;;1.10;1.00;;;;;;;11.74;100.00;100057.44;5059059;28;20020;-66
2023/03/23 03:35:57;;;;;;;1.25;1.00;;;;;;;11.81;100.00;100047.91;5054802;28;20067;-65
2023/03/23 03:38:23;;;;;;;1.17;1.02;;;;;;;11.76;100.00;100053.38;5067533;28;20062;-66
2023/03/23 03:40:48;;;;;;;1.02;0.93;;;;;;;11.79;100.00;100063.84;5066976;28;20449;-66
2023/03/23 03:43:14;;;;;;;1.00;1.00;;;;;;;11.72;100.00;100059.63;5064396;28;20028;-66
2023/03/23 03:45:40;;;;;;;1.65;1.10;;;;;;;11.74;100.00;100061.03;5065036;28;20020;-66
2023/03/23 03:48:06;;;;;;;1.10;1.00;;;;;;;11.73;100.00;100067.63;5034589;28;20091;-66
2023/03/23 03:50:32;;;;;;;1.30;0.93;;;;;;;11.77;100.00;100070.69;5026545;28;20029;-64
2023/03/23 03:52:57;;;;;;;0.98;0.90;;;;;;;11.74;100.00;100063.78;5027319;28;20035;-68
2023/03/23 03:55:23;;;;;;;1.17;1.00;;;;;;;11.72;100.00;100054.97;5046174;28;20028;-66
2023/03/23 03:57:48;;;;;;;1.13;0.93;;;;;;;11.79;100.00;100063.00;5032474;28;20520;-67
2023/03/23 04:00:14;;;;;;;1.42;1.10;;;;;;;11.78;100.00;100073.19;5038765;28;20056;-67
2023/03/23 04:02:41;;;;;;;1.23;1.10;;;;;;;11.75;100.00;100068.19;5065764;28;20040;-66
2023/03/23 04:05:08;;;;;;;1.67;1.10;;;;;;;11.75;100.00;100072.88;5053276;28;20581;-65
2023/03/23 04:07:37;;;;;;;1.10;0.95;;;;;;;11.78;100.00;100070.44;5060637;28;20028;-67
2023/03/23 04:10:05;;;;;;;1.65;1.00;;;;;;;11.82;100.00;100071.63;5048697;28;20029;-67
2023/03/23 04:12:30;;;;;;;1.50;0.93;;;;;;;11.95;100.00;100073.13;5065056;28;20418;-67
2023/03/23 04:14:56;;;;;;;1.20;0.98;;;;;;;11.80;100.00;100065.50;5055900;28;20037;-67
2023/03/23 04:17:21;;;;;;;1.67;0.90;;;;;;;11.86;100.00;100070.03;5034158;28;20631;-67
2023/03/23 04:19:47;;;;;;;1.83;1.02;;;;;;;11.84;100.00;100061.19;5030892;28;20029;-63
2023/03/23 04:22:12;;;;;;;1.80;0.90;;;;;;;11.82;100.00;100074.38;5049395;28;20035;-66
2023/03/23 04:24:37;;;;;;;1.15;1.00;;;;;;;11.78;100.00;100064.94;5049771;28;20108;-66
2023/03/23 04:27:03;;;;;;;2.47;1.10;;;;;;;11.77;99.97;100068.78;5050045;28;20120;-66
2023/03/23 04:29:28;;;;;;;2.55;1.10;;;;;;;11.74;100.00;100074.78;5052246;28;20606;-67
2023/03/23 04:31:55;;;;;;;1.98;1.10;;;;;;;11.72;100.00;100076.97;5067766;28;20386;-65
2023/03/23 04:34:21;;;;;;;2.00;1.00;;;;;;;11.75;99.62;100083.88;5040040;28;20024;-67
2023/03/23 04:36:47;;;;;;;1.63;1.08;;;;;;;11.86;98.69;100080.16;5069125;28;20040;-68
2023/03/23 04:39:13;;;;;;;2.00;1.00;;;;;;;11.80;98.93;100082.00;5069893;28;20467;-67
2023/03/23 04:41:39;;;;;;;1.60;0.98;;;;;;;11.86;98.16;100097.53;5059080;28;20029;-65
2023/03/23 04:44:05;;;;;;;1.73;1.00;;;;;;;11.81;98.17;100096.59;5049754;28;20367;-66
2023/03/23 04:46:31;;;;;;;2.05;0.90;;;;;;;11.83;97.73;100091.72;5050778;28;20021;-65
2023/03/23 04:49:00;;;;;;;2.58;1.20;;;;;;;11.78;99.12;100097.94;5051236;28;20029;-67
2023/03/23 04:51:27;;;;;;;2.03;0.90;;;;;;;11.77;98.35;100092.72;5070195;28;20024;-67
2023/03/23 04:53:53;;;;;;;1.37;1.00;;;;;;;11.85;97.27;100095.84;5064887;28;20387;-67
2023/03/23 04:56:18;;;;;;;1.83;1.10;;;;;;;11.80;98.34;100095.75;5048814;28;20037;-64
2023/03/23 04:58:45;;;;;;;2.53;1.10;;;;;;;11.74;99.08;100107.78;5049051;28;20029;-67
2023/03/23 05:01:14;;;;;;;2.13;1.08;;;;;;;11.74;98.75;100095.97;5056291;28;20036;-66
2023/03/23 05:03:41;;;;;;;2.15;1.05;;;;;;;11.76;98.23;100102.03;5065597;28;20039;-64
2023/03/23 05:06:06;;;;;;;2.80;1.10;;;;;;;11.70;98.61;100088.22;5053008;28;20026;-67
2023/03/23 05:08:32;;;;;;;2.30;1.00;;;;;;;11.75;98.69;100090.19;5057431;28;20041;-66
2023/03/23 05:10:59;;;;;;;1.92;0.90;;;;;;;11.74;98.16;100093.22;5057114;28;20515;-67
2023/03/23 05:13:27;;;;;;;1.85;1.00;;;;;;;11.70;98.46;100092.88;5052796;28;20115;-67
2023/03/23 05:15:52;;;;;;;2.05;1.30;;;;;;;11.64;98.91;100099.41;5061144;28;20032;-67
2023/03/23 05:18:20;;;;;;;2.90;1.70;;;;;;;11.64;99.21;100099.41;5069039;28;20032;-63
2023/03/23 05:20:46;;;;;;;2.67;1.40;;;;;;;11.60;99.61;100096.34;5061111;28;20085;-67
2023/03/23 05:23:12;;;;;;;2.92;1.70;;;;;;;11.60;99.14;100101.00;5047099;28;20021;-67
2023/03/23 05:25:39;;;;;;;2.22;1.00;;;;;;;11.61;99.28;100105.44;5038372;28;20136;-64
2023/03/23 05:28:06;;;;;;;2.67;1.07;;;;;;;11.56;99.57;100102.63;5047202;28;20021;-67
2023/03/23 05:30:32;;;;;;;1.85;0.90;;;;;;;11.58;99.31;100100.44;5049283;28;20078;-65
2023/03/23 05:32:57;;;;;;;2.17;1.02;;;;;;;11.59;99.36;100097.44;5049766;28;20115;-67
2023/03/23 05:35:22;;;;;;;2.10;0.95;;;;;;;11.60;98.55;100106.50;5052957;28;20036;-66
2023/03/23 05:37:48;;;;;;;1.52;0.82;;;;;;;11.58;99.30;100103.19;5068761;28;20136;-65
2023/03/23 05:40:13;;;;;;;1.90;0.90;;;;;;;11.62;99.02;100110.69;5067244;28;20025;-66
2023/03/23 05:42:40;;;;;;;1.67;0.80;;;;;;;11.56;99.66;100103.47;5061580;28;20027;-65
2023/03/23 05:45:08;;;;;;;2.17;1.10;;;;;;;11.57;99.24;100109.78;5049262;28;20021;-64
2023/03/23 05:47:34;;;;;;;1.42;0.90;;;;;;;11.58;98.88;100100.44;5033523;28;20042;-66
2023/03/23 05:50:00;;;;;;;2.80;1.00;;;;;;;11.59;98.97;100102.94;5068723;28;20020;-66
2023/03/23 05:52:25;;;;;;;1.92;1.00;;;;;;;11.60;98.70;100112.00;5069530;28;20029;-66
2023/03/23 05:54:51;;;;;;;0.93;0.80;;;;;;;11.59;99.13;100108.44;5059857;28;20076;-65
2023/03/23 05:57:18;;;;;;;2.45;1.00;;;;;;;11.60;98.67;100112.00;5059681;28;20418;-66
2023/03/23 05:59:43;;;;;;;2.88;1.25;;;;;;;11.53;100.00;100119.63;5068622;28;20029;-66
2023/03/23 06:02:10;;;;;;;2.22;1.00;;;;;;;11.55;99.50;100107.28;5060900;28;20380;-67
2023/03/23 06:04:37;;;;;;;2.42;1.10;;;;;;;11.52;99.68;100117.97;5046525;28;20021;-66
2023/03/23 06:07:03;;;;;;;2.10;1.00;;;;;;;11.49;100.00;100126.72;5050432;28;20021;-67
2023/03/23 06:09:30;;;;;;;1.48;0.80;;;;;;;11.47;100.00;100115.16;5068263;28;20016;-67
2023/03/23 06:11:55;;;;;;;1.80;0.90;;;;;;;11.53;100.00;100116.88;5066286;28;20056;-66
2023/03/23 06:14:22;;;;;;;2.78;1.10;;;;;;;11.56;99.42;100122.72;5052793;28;20094;-67
2023/03/23 06:16:47;;;;;;;2.80;1.20;;;;;;;11.55;99.50;100122.94;5046242;28;20025;-67
2023/03/23 06:19:14;;;;;;;2.88;1.17;;;;;;;11.53;100.00;100130.63;5048577;28;20036;-67
2023/03/23 06:21:39;;;;;;;2.30;1.10;;;;;;;11.54;100.00;100141.38;5061885;28;20467;-67
2023/03/23 06:24:05;;;;;;;2.17;1.00;;;;;;;11.55;100.00;100144.94;5055760;28;20032;-68
2023/03/23 06:26:36;;;;;;;3.03;1.10;;;;;;;11.57;99.31;100154.63;5051783;28;20374;-67
2023/03/23 06:29:02;;;;;;;3.72;1.38;;;;;;;11.60;99.60;100153.25;5067158;28;20588;-64
2023/03/23 06:31:28;;;;;;;8.57;1.98;;;;;;;11.63;98.66;100159.09;5052552;28;20056;-67
2023/03/23 06:33:53;;;;;;;2.88;1.25;;;;;;;11.65;98.53;100167.09;5053995;28;20106;-67
2023/03/23 06:36:19;;;;;;;2.53;1.15;;;;;;;11.70;98.23;100158.91;5067054;28;20142;-65
2023/03/23 06:38:45;;;;;;;5.05;1.33;;;;;;;11.66;98.36;100163.28;5067338;28;20033;-67
2023/03/23 06:41:11;;;;;;;2.10;1.05;;;;;;;11.66;99.09;100168.78;5067060;28;20371;-66
2023/03/23 06:43:39;;;;;;;2.05;1.05;;;;;;;11.74;97.70;100168.31;5050138;28;20025;-66
2023/03/23 06:46:08;;;;;;;4.53;1.60;;;;;;;11.70;98.24;100183.66;5030650;28;20108;-66
2023/03/23 06:48:33;;;;;;;4.43;1.30;;;;;;;11.68;99.26;100183.09;5040061;28;20039;-67
2023/03/23 06:50:58;;;;;;;2.25;1.20;;;;;;;11.66;100.00;100185.28;5067698;28;20020;-67
2023/03/23 06:53:24;;;;;;;4.00;1.20;;;;;;;11.61;99.88;100186.03;5068132;28;20059;-67
2023/03/23 06:55:51;;;;;;;2.03;1.15;;;;;;;11.54;100.00;100188.13;5046499;28;20360;-67
2023/03/23 06:58:16;;;;;;;3.67;1.30;;;;;;;11.49;100.00;100182.53;5057736;28;20064;-66
2023/03/23 07:00:41;;;;;;;3.08;1.20;;;;;;;11.50;100.00;100186.97;5058423;28;20550;-65
2023/03/23 07:03:08;;;;;;;4.30;1.27;;;;;;;11.54;100.00;100201.03;5042130;28;20394;-63
2023/03/23 07:05:34;;;;;;;2.40;1.00;;;;;;;11.41;100.00;100199.50;5049835;28;20163;-67
2023/03/23 07:08:00;;;;;;;2.63;1.20;;;;;;;11.33;100.00;100206.25;5048191;28;20027;-66
2023/03/23 07:10:25;;;;;;;3.00;1.33;;;;;;;11.29;100.00;100204.25;5050995;28;20027;-67
2023/03/23 07:12:50;;;;;;;1.80;0.90;;;;;;;11.36;100.00;100214.00;5060079;28;20467;-67
2023/03/23 07:15:16;;;;;;;2.25;1.10;;;;;;;11.16;100.00;100210.94;5058537;28;20052;-64
2023/03/23 07:17:42;;;;;;;4.00;1.50;;;;;;;11.00;100.00;100203.50;5062911;28;20028;-66
2023/03/23 07:20:08;;;;;;;4.75;1.35;;;;;;;10.91;100.00;100212.16;5056337;28;20478;-66
2023/03/23 07:22:33;;;;;;;2.40;1.00;;;;;;;10.86;100.00;100222.22;5057647;28;20492;-65
2023/03/23 07:24:59;;;;;;;2.08;1.00;;;;;;;10.88;100.00;100225.56;5045832;28;20036;-67
2023/03/23 07:27:25;;;;;;;2.00;1.08;;;;;;;10.85;100.00;100215.91;5046551;28;20025;-64
2023/03/23 07:29:50;;;;;;;2.85;1.10;;;;;;;10.83;100.00;100215.31;5063208;28;20028;-66
2023/03/23 07:32:16;;;;;;;3.42;1.15;;;;;;;10.89;100.00;100216.22;5047648;28;20033;-66
2023/03/23 07:34:42;;;;;;;3.08;1.27;;;;;;;10.93;100.00;100217.41;5047175;28;20102;-64
2023/03/23 07:37:08;;;;;;;3.00;1.00;;;;;;;10.95;100.00;100217.13;5054599;28;20264;-67
2023/03/23 07:39:33;;;;;;;2.38;1.00;;;;;;;10.97;100.00;100217.75;5067181;28;20039;-67
2023/03/23 07:41:58;;;;;;;2.20;0.80;;;;;;;10.87;100.00;100230.22;5066841;28;20109;-66
2023/03/23 07:44:24;;;;;;;1.33;0.70;;;;;;;10.86;100.00;100235.97;5067305;28;20531;-66
2023/03/23 07:46:50;;;;;;;0.65;0.63;;;;;;;10.65;100.00;100230.09;5052562;28;20029;-67
2023/03/23 07:49:17;;;;;;;0.70;0.70;;;;;;;10.45;100.00;100245.38;5027372;28;20043;-67
2023/03/23 07:51:42;;;;;;;0.95;0.70;;;;;;;10.29;100.00;100236.81;5025277;28;20017;-65
2023/03/23 07:54:07;;;;;;;0.93;0.82;;;;;;;10.18;100.00;100245.88;5064912;28;20032;-67
2023/03/23 07:56:39;;;;;;;1.27;0.90;;;;;;;10.18;100.00;100245.03;5054805;28;20025;-66
2023/03/23 07:59:05;;;;;;;2.05;0.88;;;;;;;10.03;100.00;100248.28;5046309;28;20098;-67
2023/03/23 08:01:31;;;;;;;0.80;0.70;;;;;;;9.99;100.00;100255.38;5043223;28;20041;-65
2023/03/23 08:03:57;;;;;;;0.82;0.73;;;;;;;9.99;100.00;100255.38;5045822;28;20025;-66
2023/03/23 08:06:23;;;;;;;1.10;0.70;;;;;;;9.98;100.00;100259.16;5043914;28;20541;-66
2023/03/23 08:08:49;;;;;;;0.70;0.70;;;;;;;9.88;100.00;100257.88;5043706;28;20035;-67
2023/03/23 08:11:15;;;;;;;1.02;0.80;;;;;;;9.87;100.00;100253.44;5044652;28;20013;-67
2023/03/23 08:13:44;;;;;;;1.27;0.60;;;;;;;9.88;100.00;100260.63;5042799;28;20163;-67
2023/03/23 08:16:09;;;;;;;0.70;0.70;;;;;;;9.87;100.00;100267.16;5044147;28;20056;-67
2023/03/23 08:18:36;;;;;;;1.35;0.80;;;;;;;9.94;100.00;100275.28;5044912;28;20056;-65
2023/03/23 08:21:06;;;;;;;1.92;0.70;;;;;;;10.02;100.00;100279.56;5044362;28;20033;-65
2023/03/23 08:23:32;;;;;;;0.80;0.70;;;;;;;10.18;100.00;100275.22;5044238;28;20029;-66
2023/03/23 08:25:58;;;;;;;0.75;0.70;;;;;;;10.34;100.00;100277.25;5044840;28;20074;-67
2023/03/23 08:28:23;;;;;;;1.40;0.80;;;;;;;10.47;100.00;100276.13;5043915;28;20316;-66
2023/03/23 08:30:49;;;;;;;0.85;0.70;;;;;;;10.49;100.00;100279.47;5045018;28;20538;-66
2023/03/23 08:33:15;;;;;;;2.15;0.90;;;;;;;10.52;100.00;100279.81;5053111;28;20028;-66
2023/03/23 08:35:42;;;;;;;0.80;0.70;;;;;;;10.47;100.00;100273.41;5039732;28;20056;-65
2023/03/23 08:38:07;;;;;;;1.40;0.77;;;;;;;10.46;100.00;100269.00;5037211;28;20179;-65
2023/03/23 08:40:33;;;;;;;1.42;0.80;;;;;;;10.50;100.00;100272.91;5040682;28;20051;-66
2023/03/23 08:42:58;;;;;;;0.77;0.77;;;;;;;10.53;100.00;100269.66;5040718;28;20037;-65
2023/03/23 08:45:25;;;;;;;1.35;0.70;;;;;;;10.66;100.00;100269.38;5043151;28;20029;-65
2023/03/23 08:47:51;;;;;;;1.42;0.80;;;;;;;10.83;100.00;100264.75;5042283;28;20471;-65
2023/03/23 08:50:20;;;;;;;1.10;0.80;;;;;;;10.87;100.00;100268.69;5036434;28;20470;-63
2023/03/23 08:52:45;;;;;;;1.23;0.80;;;;;;;10.86;100.00;100282.66;5042277;28;20029;-65
2023/03/23 08:55:12;;;;;;;0.90;0.77;;;;;;;10.76;100.00;100274.25;5043776;28;20025;-64
2023/03/23 08:57:38;;;;;;;1.55;0.77;;;;;;;10.81;100.00;100277.09;5039869;28;20211;-65
2023/03/23 09:00:17;;;;;;;0.77;0.60;;;;;;;10.94;100.00;100275.94;5048237;28;20108;-66
2023/03/23 09:02:44;;;;;;;1.02;0.77;;;;;;;10.95;100.00;100305.06;5038507;28;20029;-65
2023/03/23 09:05:10;;;;;;;1.00;0.80;;;;;;;10.97;100.00;100292.75;5054994;28;20037;-66
2023/03/23 09:07:38;;;;;;;1.20;1.00;;;;;;;11.17;100.00;100297.78;5045058;28;20029;-66
2023/03/23 09:10:04;;;;;;;3.33;1.20;;;;;;;11.29;100.00;100300.47;5039947;28;20476;-66
2023/03/23 09:12:30;;;;;;;1.33;0.70;;;;;;;11.28;100.00;100291.38;5041823;28;20016;-66
2023/03/23 09:14:55;;;;;;;2.15;0.77;;;;;;;11.40;100.00;100270.16;5048450;28;20029;-65
2023/03/23 09:17:21;;;;;;;1.23;0.75;;;;;;;11.84;96.82;100242.78;5056482;28;20033;-63
2023/03/23 09:19:46;;;;;;;2.15;0.95;;;;;;;12.08;94.59;100265.41;5037739;28;20031;-66
2023/03/23 09:22:11;;;;;;;0.75;0.70;;;;;;;11.98;94.27;100268.00;5047638;28;20021;-66
2023/03/23 09:24:37;;;;;;;3.80;1.17;;;;;;;12.07;95.43;100276.66;5052175;28;20929;-65
2023/03/23 09:27:03;;;;;;;2.20;0.82;;;;;;;12.83;91.60;100276.75;5048270;28;20035;-65
2023/03/23 09:29:28;;;;;;;2.05;0.90;;;;;;;13.01;89.22;100276.38;5042382;28;20029;-66
2023/03/23 09:31:55;;;;;;;2.80;1.05;;;;;;;13.61;87.83;100282.72;5045826;28;20056;-65
2023/03/23 09:34:22;;;;;;;2.28;0.90;;;;;;;14.92;81.93;100283.66;5044494;28;20774;-65
2023/03/23 09:36:48;;;;;;;1.52;0.73;;;;;;;16.35;74.99;100273.31;5043679;28;20071;-64
2023/03/23 09:39:13;;;;;;;1.45;0.80;;;;;;;17.64;69.53;100273.06;5048005;28;20605;-65
2023/03/23 09:41:46;;;;;;;1.25;0.73;;;;;;;18.91;66.79;100283.88;5047075;28;20033;-65
2023/03/23 09:44:30;;;;;;;1.00;0.60;;;;;;;19.35;65.48;100282.63;5045424;28;20064;-66
2023/03/23 09:47:04;;;;;;;1.65;0.68;;;;;;;19.86;58.66;100288.19;5046539;28;20040;-66
2023/03/23 09:49:35;;;;;;;0.80;0.60;;;;;;;19.75;59.23;100305.41;5054297;28;20063;-66
2023/03/23 09:52:09;;;;;;;0.80;0.70;;;;;;;20.28;57.40;100307.78;5048227;28;20052;-66
2023/03/23 09:54:43;;;;;;;1.30;0.70;;;;;;;20.66;56.38;100303.66;5036977;28;20057;-66
2023/03/23 09:57:40;;;;;;;1.58;0.60;;;;;;;21.22;57.00;100309.97;5026490;28;20476;-66
2023/03/23 10:00:15;;;;;;;1.25;0.80;;;;;;;21.86;53.10;100302.28;5027382;28;20025;-66
2023/03/23 10:02:49;;;;;;;1.45;0.70;;;;;;;22.02;50.89;100302.69;5040902;28;20099;-66
2023/03/23 10:05:32;;;;;;;1.02;0.60;;;;;;;22.50;52.62;100315.94;5047258;28;20431;-65
2023/03/23 10:07:59;;;;;;;1.08;0.60;;;;;;;22.51;48.34;100312.81;5047003;28;20484;-64
2023/03/23 10:10:37;;;;;;;1.17;0.60;;;;;;;22.50;49.98;100310.31;5044781;28;20119;-66
2023/03/23 10:13:16;;;;;;;1.40;0.70;;;;;;;22.54;49.21;100314.97;5046859;28;20036;-67
2023/03/23 10:15:43;;;;;;;1.65;0.60;;;;;;;22.40;48.24;100310.63;5045462;28;20242;-66
2023/03/23 10:18:22;;;;;;;0.95;0.80;;;;;;;22.73;48.07;100314.69;5046601;28;20068;-63
2023/03/23 10:20:57;;;;;;;1.60;0.73;;;;;;;23.17;47.94;100312.84;5046481;28;20437;-66
2023/03/23 10:23:31;;;;;;;1.13;0.70;;;;;;;21.81;50.08;100310.78;5046767;28;20017;-66
2023/03/23 10:26:24;;;;;;;3.58;1.23;;;;;;;21.34;52.56;100323.41;5042796;28;20021;-66
2023/03/23 10:28:56;;;;;;;1.95;0.90;;;;;;;20.60;52.69;100315.25;5045798;28;20036;-65
2023/03/23 10:31:39;;;;;;;0.88;0.70;;;;;;;21.29;51.54;100324.34;5045980;28;20032;-66
2023/03/23 10:34:30;;;;;;;1.27;0.73;;;;;;;20.78;52.73;100325.47;5045884;28;20029;-65
2023/03/23 10:37:04;;;;;;;1.23;0.73;;;;;;;19.56;55.10;100336.88;5045555;28;20446;-65
2023/03/23 10:39:54;;;;;;;2.08;0.80;;;;;;;18.34;59.74;100324.59;5046089;28;20091;-66
2023/03/23 10:42:27;;;;;;;1.52;0.75;;;;;;;17.15;62.98;100336.19;5045612;28;20028;-66
2023/03/23 10:44:53;;;;;;;2.33;0.95;;;;;;;16.51;65.13;100338.66;5043648;28;20021;-66
2023/03/23 10:47:19;;;;;;;1.05;0.80;;;;;;;16.96;68.70;100341.56;5038509;28;20029;-67
2023/03/23 10:49:55;;;;;;;1.45;0.82;;;;;;;18.24;61.82;100319.16;5026209;28;20017;-66
2023/03/23 10:52:38;;;;;;;0.90;0.68;;;;;;;19.35;59.86;100332.75;5035339;28;20430;-65
2023/03/23 10:55:18;;;;;;;1.15;0.80;;;;;;;20.01;56.92;100323.31;5046657;28;20167;-65
2023/03/23 10:58:01;;;;;;;1.25;0.82;;;;;;;20.63;54.80;100314.63;5043706;28;20021;-66
2023/03/23 11:00:27;;;;;;;1.63;0.80;;;;;;;19.81;54.88;100318.13;5046040;28;20021;-66
2023/03/23 11:03:02;;;;;;;2.88;0.80;;;;;;;20.09;57.51;100314.25;5045484;28;20514;-65
2023/03/23 11:05:34;;;;;;;2.20;1.02;;;;;;;20.41;54.47;100306.94;5044712;28;20152;-65
2023/03/23 11:08:01;;;;;;;1.90;0.82;;;;;;;19.67;54.89;100316.13;5038403;28;20099;-65
2023/03/23 11:10:48;;;;;;;2.00;0.80;;;;;;;19.88;56.07;100322.19;5033821;28;20021;-65
2023/03/23 11:13:17;;;;;;;1.52;0.88;;;;;;;19.36;55.33;100318.56;5065991;28;20029;-64
2023/03/23 11:15:47;;;;;;;1.17;0.73;;;;;;;18.78;56.68;100315.22;5065963;28;20118;-65
2023/03/23 11:18:23;;;;;;;1.38;0.90;;;;;;;18.37;59.05;100316.50;5057311;28;20123;-65
2023/03/23 11:20:53;;;;;;;2.03;0.90;;;;;;;18.52;58.33;100318.28;5046561;28;20052;-64
2023/03/23 11:23:31;;;;;;;3.60;1.02;;;;;;;18.01;59.54;100329.97;5046197;28;20033;-66
2023/03/23 11:26:33;;;;;;;3.95;1.17;;;;;;;17.20;62.74;100317.53;5044222;28;20186;-66
2023/03/23 11:29:22;;;;;;;2.78;1.05;;;;;;;17.11;63.03;100325.66;5044768;28;20039;-66